sensor_id;sensor_type;location;lat;lon;timestamp;P1;durP1;ratioP1;P2;durP2;ratioP2
7487;SDS011;3785;52.260;4.728;2023-02-22T00:02:15;36.63;;;12.30;;
7487;SDS011;3785;52.260;4.728;2023-02-22T00:05:46;35.40;;;11.32;;
7487;SDS011;3785;52.260;4.728;2023-02-22T00:09:06;38.78;;;12.30;;
7487;SDS011;3785;52.260;4.728;2023-02-22T00:12:28;35.45;;;11.98;;
7487;SDS011;3785;52.260;4.728;2023-02-22T00:15:49;32.50;;;10.98;;
7487;SDS011;3785;52.260;4.728;2023-02-22T00:19:09;37.50;;;12.80;;
7487;SDS011;3785;52.260;4.728;2023-02-22T00:22:30;36.95;;;13.02;;
7487;SDS011;3785;52.260;4.728;2023-02-22T00:25:50;31.08;;;11.80;;
7487;SDS011;3785;52.260;4.728;2023-02-22T00:29:11;36.53;;;12.35;;
7487;SDS011;3785;52.260;4.728;2023-02-22T00:32:32;34.60;;;12.27;;
7487;SDS011;3785;52.260;4.728;2023-02-22T00:35:53;37.05;;;11.85;;
7487;SDS011;3785;52.260;4.728;2023-02-22T00:39:14;35.42;;;13.00;;
7487;SDS011;3785;52.260;4.728;2023-02-22T00:42:35;36.38;;;11.32;;
7487;SDS011;3785;52.260;4.728;2023-02-22T00:45:55;33.28;;;12.23;;
7487;SDS011;3785;52.260;4.728;2023-02-22T00:49:17;33.30;;;10.95;;
7487;SDS011;3785;52.260;4.728;2023-02-22T00:52:37;32.30;;;10.88;;
7487;SDS011;3785;52.260;4.728;2023-02-22T00:55:58;29.83;;;11.20;;
7487;SDS011;3785;52.260;4.728;2023-02-22T00:59:19;26.55;;;10.80;;
7487;SDS011;3785;52.260;4.728;2023-02-22T01:02:40;32.78;;;11.95;;
7487;SDS011;3785;52.260;4.728;2023-02-22T01:06:01;28.35;;;10.65;;
7487;SDS011;3785;52.260;4.728;2023-02-22T01:09:22;30.48;;;11.23;;
7487;SDS011;3785;52.260;4.728;2023-02-22T01:12:47;27.75;;;10.23;;
7487;SDS011;3785;52.260;4.728;2023-02-22T01:16:09;28.25;;;9.50;;
7487;SDS011;3785;52.260;4.728;2023-02-22T01:19:29;25.20;;;10.00;;
7487;SDS011;3785;52.260;4.728;2023-02-22T01:22:51;21.13;;;8.90;;
7487;SDS011;3785;52.260;4.728;2023-02-22T01:26:14;25.52;;;10.30;;
7487;SDS011;3785;52.260;4.728;2023-02-22T01:29:34;24.45;;;9.27;;
7487;SDS011;3785;52.260;4.728;2023-02-22T01:32:55;23.88;;;10.20;;
7487;SDS011;3785;52.260;4.728;2023-02-22T01:36:16;24.27;;;10.82;;
7487;SDS011;3785;52.260;4.728;2023-02-22T01:39:37;23.25;;;9.88;;
7487;SDS011;3785;52.260;4.728;2023-02-22T01:42:59;25.83;;;10.70;;
7487;SDS011;3785;52.260;4.728;2023-02-22T01:46:25;26.63;;;10.07;;
7487;SDS011;3785;52.260;4.728;2023-02-22T01:49:46;24.10;;;10.55;;
7487;SDS011;3785;52.260;4.728;2023-02-22T01:53:09;24.25;;;11.10;;
7487;SDS011;3785;52.260;4.728;2023-02-22T01:56:33;22.05;;;10.77;;
7487;SDS011;3785;52.260;4.728;2023-02-22T01:59:56;26.40;;;11.23;;
7487;SDS011;3785;52.260;4.728;2023-02-22T02:03:21;22.67;;;10.55;;
7487;SDS011;3785;52.260;4.728;2023-02-22T02:06:46;24.35;;;10.88;;
7487;SDS011;3785;52.260;4.728;2023-02-22T02:10:08;25.05;;;10.25;;
7487;SDS011;3785;52.260;4.728;2023-02-22T02:13:33;22.77;;;10.60;;
7487;SDS011;3785;52.260;4.728;2023-02-22T02:16:54;22.63;;;10.55;;
7487;SDS011;3785;52.260;4.728;2023-02-22T02:20:21;26.80;;;10.98;;
7487;SDS011;3785;52.260;4.728;2023-02-22T02:27:21;20.73;;;10.00;;
7487;SDS011;3785;52.260;4.728;2023-02-22T02:38:21;20.73;;;9.82;;
7487;SDS011;3785;52.260;4.728;2023-02-22T02:41:49;24.15;;;10.88;;
7487;SDS011;3785;52.260;4.728;2023-02-22T02:45:12;21.35;;;10.75;;
7487;SDS011;3785;52.260;4.728;2023-02-22T02:48:36;23.05;;;10.38;;
7487;SDS011;3785;52.260;4.728;2023-02-22T02:52:01;22.75;;;9.55;;
7487;SDS011;3785;52.260;4.728;2023-02-22T02:55:23;20.98;;;9.25;;
7487;SDS011;3785;52.260;4.728;2023-02-22T02:58:45;24.60;;;10.93;;
7487;SDS011;3785;52.260;4.728;2023-02-22T03:02:16;24.60;;;10.48;;
7487;SDS011;3785;52.260;4.728;2023-02-22T03:24:10;23.13;;;10.90;;
7487;SDS011;3785;52.260;4.728;2023-02-22T03:27:44;23.30;;;10.13;;
7487;SDS011;3785;52.260;4.728;2023-02-22T03:31:09;21.63;;;10.25;;
7487;SDS011;3785;52.260;4.728;2023-02-22T03:34:41;25.90;;;10.63;;
7487;SDS011;3785;52.260;4.728;2023-02-22T03:38:05;26.17;;;11.23;;
7487;SDS011;3785;52.260;4.728;2023-02-22T03:41:29;25.90;;;11.25;;
7487;SDS011;3785;52.260;4.728;2023-02-22T03:44:51;26.23;;;11.60;;
7487;SDS011;3785;52.260;4.728;2023-02-22T03:51:44;26.90;;;10.60;;
7487;SDS011;3785;52.260;4.728;2023-02-22T03:55:05;21.38;;;10.00;;
7487;SDS011;3785;52.260;4.728;2023-02-22T03:58:30;26.17;;;10.75;;
7487;SDS011;3785;52.260;4.728;2023-02-22T04:01:55;18.58;;;9.25;;
7487;SDS011;3785;52.260;4.728;2023-02-22T04:05:16;29.15;;;9.57;;
7487;SDS011;3785;52.260;4.728;2023-02-22T04:08:36;25.42;;;11.02;;
7487;SDS011;3785;52.260;4.728;2023-02-22T04:11:57;24.73;;;10.07;;
7487;SDS011;3785;52.260;4.728;2023-02-22T04:15:19;21.85;;;10.13;;
7487;SDS011;3785;52.260;4.728;2023-02-22T04:18:41;23.55;;;10.20;;
7487;SDS011;3785;52.260;4.728;2023-02-22T04:22:02;25.90;;;10.45;;
7487;SDS011;3785;52.260;4.728;2023-02-22T04:25:22;26.50;;;10.80;;
7487;SDS011;3785;52.260;4.728;2023-02-22T04:28:43;23.02;;;10.57;;
7487;SDS011;3785;52.260;4.728;2023-02-22T04:32:04;25.85;;;11.73;;
7487;SDS011;3785;52.260;4.728;2023-02-22T04:35:25;28.30;;;11.68;;
7487;SDS011;3785;52.260;4.728;2023-02-22T04:38:45;24.92;;;10.95;;
7487;SDS011;3785;52.260;4.728;2023-02-22T04:42:06;29.85;;;12.05;;
7487;SDS011;3785;52.260;4.728;2023-02-22T04:45:26;29.45;;;10.95;;
7487;SDS011;3785;52.260;4.728;2023-02-22T04:48:47;27.33;;;10.32;;
7487;SDS011;3785;52.260;4.728;2023-02-22T04:52:08;28.70;;;10.73;;
7487;SDS011;3785;52.260;4.728;2023-02-22T04:55:28;29.23;;;11.57;;
7487;SDS011;3785;52.260;4.728;2023-02-22T04:58:49;27.92;;;11.05;;
7487;SDS011;3785;52.260;4.728;2023-02-22T05:02:09;28.48;;;10.82;;
7487;SDS011;3785;52.260;4.728;2023-02-22T05:05:30;31.42;;;12.40;;
7487;SDS011;3785;52.260;4.728;2023-02-22T05:08:51;31.25;;;11.63;;
7487;SDS011;3785;52.260;4.728;2023-02-22T05:12:12;30.52;;;11.45;;
7487;SDS011;3785;52.260;4.728;2023-02-22T05:15:32;29.83;;;11.20;;
7487;SDS011;3785;52.260;4.728;2023-02-22T05:18:53;29.88;;;11.50;;
7487;SDS011;3785;52.260;4.728;2023-02-22T05:22:13;34.20;;;12.43;;
7487;SDS011;3785;52.260;4.728;2023-02-22T05:25:34;23.77;;;10.73;;
7487;SDS011;3785;52.260;4.728;2023-02-22T05:28:55;28.80;;;11.13;;
7487;SDS011;3785;52.260;4.728;2023-02-22T05:32:15;24.73;;;11.00;;
7487;SDS011;3785;52.260;4.728;2023-02-22T05:35:36;24.80;;;10.40;;
7487;SDS011;3785;52.260;4.728;2023-02-22T05:38:56;28.27;;;10.65;;
7487;SDS011;3785;52.260;4.728;2023-02-22T05:42:17;24.95;;;10.65;;
7487;SDS011;3785;52.260;4.728;2023-02-22T05:45:38;27.77;;;11.27;;
7487;SDS011;3785;52.260;4.728;2023-02-22T05:48:59;28.73;;;11.57;;
7487;SDS011;3785;52.260;4.728;2023-02-22T05:52:20;29.33;;;10.98;;
7487;SDS011;3785;52.260;4.728;2023-02-22T05:55:40;24.95;;;10.20;;
7487;SDS011;3785;52.260;4.728;2023-02-22T05:59:01;26.45;;;11.57;;
7487;SDS011;3785;52.260;4.728;2023-02-22T06:02:21;29.98;;;10.30;;
7487;SDS011;3785;52.260;4.728;2023-02-22T06:05:42;25.77;;;10.82;;
7487;SDS011;3785;52.260;4.728;2023-02-22T06:09:03;29.65;;;11.23;;
7487;SDS011;3785;52.260;4.728;2023-02-22T06:12:23;30.25;;;11.80;;
7487;SDS011;3785;52.260;4.728;2023-02-22T06:15:44;25.63;;;9.93;;
7487;SDS011;3785;52.260;4.728;2023-02-22T06:19:04;29.75;;;11.68;;
7487;SDS011;3785;52.260;4.728;2023-02-22T06:22:25;31.92;;;12.15;;
7487;SDS011;3785;52.260;4.728;2023-02-22T06:25:46;27.60;;;11.45;;
7487;SDS011;3785;52.260;4.728;2023-02-22T06:29:06;29.95;;;11.73;;
7487;SDS011;3785;52.260;4.728;2023-02-22T06:32:27;25.08;;;10.80;;
7487;SDS011;3785;52.260;4.728;2023-02-22T06:35:48;24.02;;;9.55;;
7487;SDS011;3785;52.260;4.728;2023-02-22T06:39:08;20.98;;;9.27;;
7487;SDS011;3785;52.260;4.728;2023-02-22T06:42:30;21.80;;;10.48;;
7487;SDS011;3785;52.260;4.728;2023-02-22T06:45:50;21.63;;;10.23;;
7487;SDS011;3785;52.260;4.728;2023-02-22T06:49:12;21.00;;;9.95;;
7487;SDS011;3785;52.260;4.728;2023-02-22T06:52:32;21.30;;;9.90;;
7487;SDS011;3785;52.260;4.728;2023-02-22T06:55:53;21.73;;;9.77;;
7487;SDS011;3785;52.260;4.728;2023-02-22T06:59:14;24.50;;;11.35;;
7487;SDS011;3785;52.260;4.728;2023-02-22T07:02:35;25.17;;;9.73;;
7487;SDS011;3785;52.260;4.728;2023-02-22T07:05:56;25.23;;;10.50;;
7487;SDS011;3785;52.260;4.728;2023-02-22T07:09:16;24.67;;;11.23;;
7487;SDS011;3785;52.260;4.728;2023-02-22T07:12:37;18.63;;;9.18;;
7487;SDS011;3785;52.260;4.728;2023-02-22T07:15:59;23.23;;;8.93;;
7487;SDS011;3785;52.260;4.728;2023-02-22T07:19:20;29.42;;;10.77;;
7487;SDS011;3785;52.260;4.728;2023-02-22T07:22:40;31.15;;;10.95;;
7487;SDS011;3785;52.260;4.728;2023-02-22T07:26:02;21.73;;;9.63;;
7487;SDS011;3785;52.260;4.728;2023-02-22T07:29:24;25.33;;;9.43;;
7487;SDS011;3785;52.260;4.728;2023-02-22T07:32:45;19.83;;;9.20;;
7487;SDS011;3785;52.260;4.728;2023-02-22T07:36:06;21.55;;;10.45;;
7487;SDS011;3785;52.260;4.728;2023-02-22T07:39:27;17.58;;;8.98;;
7487;SDS011;3785;52.260;4.728;2023-02-22T07:42:55;20.67;;;9.25;;
7487;SDS011;3785;52.260;4.728;2023-02-22T07:46:19;19.60;;;7.88;;
7487;SDS011;3785;52.260;4.728;2023-02-22T07:49:39;16.92;;;8.65;;
7487;SDS011;3785;52.260;4.728;2023-02-22T07:53:01;19.73;;;8.55;;
7487;SDS011;3785;52.260;4.728;2023-02-22T07:56:23;21.33;;;9.05;;
7487;SDS011;3785;52.260;4.728;2023-02-22T07:59:44;20.45;;;9.02;;
7487;SDS011;3785;52.260;4.728;2023-02-22T08:03:06;22.13;;;9.20;;
7487;SDS011;3785;52.260;4.728;2023-02-22T08:06:27;24.38;;;10.10;;
7487;SDS011;3785;52.260;4.728;2023-02-22T08:09:49;22.63;;;9.05;;
7487;SDS011;3785;52.260;4.728;2023-02-22T08:13:09;24.73;;;9.50;;
7487;SDS011;3785;52.260;4.728;2023-02-22T08:16:30;18.58;;;8.15;;
7487;SDS011;3785;52.260;4.728;2023-02-22T08:19:51;20.75;;;8.52;;
7487;SDS011;3785;52.260;4.728;2023-02-22T08:23:12;21.10;;;8.10;;
7487;SDS011;3785;52.260;4.728;2023-02-22T08:26:33;18.35;;;9.07;;
7487;SDS011;3785;52.260;4.728;2023-02-22T08:29:54;22.08;;;8.35;;
7487;SDS011;3785;52.260;4.728;2023-02-22T08:33:15;15.18;;;8.07;;
7487;SDS011;3785;52.260;4.728;2023-02-22T08:36:40;21.50;;;9.00;;
7487;SDS011;3785;52.260;4.728;2023-02-22T08:40:01;17.73;;;8.63;;
7487;SDS011;3785;52.260;4.728;2023-02-22T08:43:22;18.48;;;8.23;;
7487;SDS011;3785;52.260;4.728;2023-02-22T08:46:43;21.75;;;8.70;;
7487;SDS011;3785;52.260;4.728;2023-02-22T08:50:04;21.13;;;8.65;;
7487;SDS011;3785;52.260;4.728;2023-02-22T08:53:25;21.17;;;9.35;;
7487;SDS011;3785;52.260;4.728;2023-02-22T08:56:46;22.23;;;9.35;;
7487;SDS011;3785;52.260;4.728;2023-02-22T09:00:06;22.33;;;8.75;;
7487;SDS011;3785;52.260;4.728;2023-02-22T09:03:28;17.48;;;8.52;;
7487;SDS011;3785;52.260;4.728;2023-02-22T09:06:48;25.88;;;9.85;;
7487;SDS011;3785;52.260;4.728;2023-02-22T09:10:12;20.20;;;9.27;;
7487;SDS011;3785;52.260;4.728;2023-02-22T09:13:43;21.27;;;9.32;;
7487;SDS011;3785;52.260;4.728;2023-02-22T09:17:03;20.02;;;9.98;;
7487;SDS011;3785;52.260;4.728;2023-02-22T09:20:24;24.17;;;10.20;;
7487;SDS011;3785;52.260;4.728;2023-02-22T09:23:46;20.08;;;9.25;;
7487;SDS011;3785;52.260;4.728;2023-02-22T09:27:06;23.52;;;9.95;;
7487;SDS011;3785;52.260;4.728;2023-02-22T09:30:33;23.27;;;9.05;;
7487;SDS011;3785;52.260;4.728;2023-02-22T09:33:54;20.30;;;8.45;;
7487;SDS011;3785;52.260;4.728;2023-02-22T09:37:15;19.33;;;8.68;;
7487;SDS011;3785;52.260;4.728;2023-02-22T09:40:38;19.05;;;10.35;;
7487;SDS011;3785;52.260;4.728;2023-02-22T09:47:47;20.02;;;8.57;;
7487;SDS011;3785;52.260;4.728;2023-02-22T09:51:15;18.00;;;9.05;;
7487;SDS011;3785;52.260;4.728;2023-02-22T09:54:41;20.42;;;9.15;;
7487;SDS011;3785;52.260;4.728;2023-02-22T09:58:06;18.63;;;8.48;;
7487;SDS011;3785;52.260;4.728;2023-02-22T10:01:54;19.13;;;7.78;;
7487;SDS011;3785;52.260;4.728;2023-02-22T10:05:39;21.25;;;8.00;;
7487;SDS011;3785;52.260;4.728;2023-02-22T10:09:02;20.60;;;8.77;;
7487;SDS011;3785;52.260;4.728;2023-02-22T10:22:56;19.45;;;9.00;;
7487;SDS011;3785;52.260;4.728;2023-02-22T10:26:32;21.35;;;9.35;;
7487;SDS011;3785;52.260;4.728;2023-02-22T10:30:06;19.85;;;9.00;;
7487;SDS011;3785;52.260;4.728;2023-02-22T10:33:38;19.10;;;8.57;;
7487;SDS011;3785;52.260;4.728;2023-02-22T10:37:20;15.63;;;8.57;;
7487;SDS011;3785;52.260;4.728;2023-02-22T10:40:57;21.02;;;8.95;;
7487;SDS011;3785;52.260;4.728;2023-02-22T10:44:22;17.50;;;7.95;;
7487;SDS011;3785;52.260;4.728;2023-02-22T10:47:43;19.98;;;8.27;;
7487;SDS011;3785;52.260;4.728;2023-02-22T10:51:05;18.67;;;8.55;;
7487;SDS011;3785;52.260;4.728;2023-02-22T10:54:29;17.70;;;8.77;;
7487;SDS011;3785;52.260;4.728;2023-02-22T10:57:57;19.48;;;8.75;;
7487;SDS011;3785;52.260;4.728;2023-02-22T11:04:52;19.20;;;9.43;;
7487;SDS011;3785;52.260;4.728;2023-02-22T11:11:42;18.77;;;9.38;;
7487;SDS011;3785;52.260;4.728;2023-02-22T11:18:36;17.30;;;8.55;;
7487;SDS011;3785;52.260;4.728;2023-02-22T11:21:58;19.70;;;9.50;;
7487;SDS011;3785;52.260;4.728;2023-02-22T11:25:33;19.02;;;9.63;;
7487;SDS011;3785;52.260;4.728;2023-02-22T11:28:56;20.33;;;9.13;;
7487;SDS011;3785;52.260;4.728;2023-02-22T11:32:17;17.90;;;9.35;;
7487;SDS011;3785;52.260;4.728;2023-02-22T11:35:57;23.20;;;11.48;;
7487;SDS011;3785;52.260;4.728;2023-02-22T11:42:41;19.98;;;10.23;;
7487;SDS011;3785;52.260;4.728;2023-02-22T11:46:08;17.10;;;8.75;;
7487;SDS011;3785;52.260;4.728;2023-02-22T11:49:33;18.13;;;9.52;;
7487;SDS011;3785;52.260;4.728;2023-02-22T11:56:47;18.65;;;8.57;;
7487;SDS011;3785;52.260;4.728;2023-02-22T12:11:06;14.07;;;8.38;;
7487;SDS011;3785;52.260;4.728;2023-02-22T12:22:00;16.02;;;8.50;;
7487;SDS011;3785;52.260;4.728;2023-02-22T12:25:34;13.18;;;7.90;;
7487;SDS011;3785;52.260;4.728;2023-02-22T12:28:59;19.20;;;9.38;;
7487;SDS011;3785;52.260;4.728;2023-02-22T12:36:00;13.63;;;7.80;;
7487;SDS011;3785;52.260;4.728;2023-02-22T12:39:43;14.13;;;8.30;;
7487;SDS011;3785;52.260;4.728;2023-02-22T12:47:03;16.02;;;8.77;;
7487;SDS011;3785;52.260;4.728;2023-02-22T12:50:26;13.57;;;8.13;;
7487;SDS011;3785;52.260;4.728;2023-02-22T12:53:55;14.75;;;8.70;;
7487;SDS011;3785;52.260;4.728;2023-02-22T13:01:13;13.27;;;7.63;;
7487;SDS011;3785;52.260;4.728;2023-02-22T13:04:38;16.50;;;8.40;;
7487;SDS011;3785;52.260;4.728;2023-02-22T13:12:15;16.08;;;7.75;;
7487;SDS011;3785;52.260;4.728;2023-02-22T13:19:45;16.42;;;8.27;;
7487;SDS011;3785;52.260;4.728;2023-02-22T13:23:17;13.73;;;8.32;;
7487;SDS011;3785;52.260;4.728;2023-02-22T13:26:48;15.63;;;9.18;;
7487;SDS011;3785;52.260;4.728;2023-02-22T13:30:28;14.25;;;7.57;;
7487;SDS011;3785;52.260;4.728;2023-02-22T13:41:22;14.13;;;8.30;;
7487;SDS011;3785;52.260;4.728;2023-02-22T13:45:05;15.93;;;8.05;;
7487;SDS011;3785;52.260;4.728;2023-02-22T13:52:43;12.60;;;7.88;;
7487;SDS011;3785;52.260;4.728;2023-02-22T13:56:05;13.27;;;8.35;;
7487;SDS011;3785;52.260;4.728;2023-02-22T13:59:33;14.73;;;8.18;;
7487;SDS011;3785;52.260;4.728;2023-02-22T14:03:02;15.48;;;7.80;;
7487;SDS011;3785;52.260;4.728;2023-02-22T14:06:36;15.88;;;8.80;;
7487;SDS011;3785;52.260;4.728;2023-02-22T14:10:00;14.32;;;7.95;;
7487;SDS011;3785;52.260;4.728;2023-02-22T14:13:24;15.32;;;8.55;;
7487;SDS011;3785;52.260;4.728;2023-02-22T14:17:14;14.43;;;8.43;;
7487;SDS011;3785;52.260;4.728;2023-02-22T14:20:38;13.57;;;8.85;;
7487;SDS011;3785;52.260;4.728;2023-02-22T14:24:08;15.07;;;8.75;;
7487;SDS011;3785;52.260;4.728;2023-02-22T14:27:39;15.93;;;8.77;;
7487;SDS011;3785;52.260;4.728;2023-02-22T14:31:07;16.98;;;9.38;;
7487;SDS011;3785;52.260;4.728;2023-02-22T14:38:15;15.93;;;9.27;;
7487;SDS011;3785;52.260;4.728;2023-02-22T14:41:37;15.50;;;8.40;;
7487;SDS011;3785;52.260;4.728;2023-02-22T14:48:35;14.70;;;8.65;;
7487;SDS011;3785;52.260;4.728;2023-02-22T14:52:04;14.68;;;8.90;;
7487;SDS011;3785;52.260;4.728;2023-02-22T14:55:30;14.40;;;8.50;;
7487;SDS011;3785;52.260;4.728;2023-02-22T15:02:40;14.00;;;8.15;;
7487;SDS011;3785;52.260;4.728;2023-02-22T15:09:37;14.05;;;8.35;;
7487;SDS011;3785;52.260;4.728;2023-02-22T15:12:59;13.45;;;8.25;;
7487;SDS011;3785;52.260;4.728;2023-02-22T15:16:32;16.17;;;7.75;;
7487;SDS011;3785;52.260;4.728;2023-02-22T15:19:53;14.15;;;8.90;;
7487;SDS011;3785;52.260;4.728;2023-02-22T15:23:14;13.55;;;8.80;;
7487;SDS011;3785;52.260;4.728;2023-02-22T15:26:36;14.73;;;7.35;;
7487;SDS011;3785;52.260;4.728;2023-02-22T15:30:46;13.68;;;7.47;;
7487;SDS011;3785;52.260;4.728;2023-02-22T15:33:49;14.27;;;8.70;;
7487;SDS011;3785;52.260;4.728;2023-02-22T15:37:21;17.52;;;9.57;;
7487;SDS011;3785;52.260;4.728;2023-02-22T15:40:57;18.25;;;9.95;;
7487;SDS011;3785;52.260;4.728;2023-02-22T15:44:19;16.98;;;9.77;;
7487;SDS011;3785;52.260;4.728;2023-02-22T15:47:40;17.30;;;10.80;;
7487;SDS011;3785;52.260;4.728;2023-02-22T15:51:07;17.42;;;10.45;;
7487;SDS011;3785;52.260;4.728;2023-02-22T15:54:45;14.98;;;9.43;;
7487;SDS011;3785;52.260;4.728;2023-02-22T15:58:08;18.52;;;9.43;;
7487;SDS011;3785;52.260;4.728;2023-02-22T16:01:42;19.63;;;11.23;;
7487;SDS011;3785;52.260;4.728;2023-02-22T16:05:06;17.67;;;9.95;;
7487;SDS011;3785;52.260;4.728;2023-02-22T16:08:34;17.42;;;10.15;;
7487;SDS011;3785;52.260;4.728;2023-02-22T16:15:53;18.35;;;10.35;;
7487;SDS011;3785;52.260;4.728;2023-02-22T16:19:34;20.20;;;11.60;;
7487;SDS011;3785;52.260;4.728;2023-02-22T16:23:00;19.02;;;10.63;;
7487;SDS011;3785;52.260;4.728;2023-02-22T16:26:41;20.15;;;12.35;;
7487;SDS011;3785;52.260;4.728;2023-02-22T16:30:24;19.52;;;11.45;;
7487;SDS011;3785;52.260;4.728;2023-02-22T16:33:56;21.10;;;12.50;;
7487;SDS011;3785;52.260;4.728;2023-02-22T16:37:20;20.10;;;13.32;;
7487;SDS011;3785;52.260;4.728;2023-02-22T16:40:49;26.10;;;13.77;;
7487;SDS011;3785;52.260;4.728;2023-02-22T16:44:11;22.77;;;13.15;;
7487;SDS011;3785;52.260;4.728;2023-02-22T16:47:32;22.38;;;13.70;;
7487;SDS011;3785;52.260;4.728;2023-02-22T16:50:53;22.60;;;14.18;;
7487;SDS011;3785;52.260;4.728;2023-02-22T16:54:27;21.27;;;13.68;;
7487;SDS011;3785;52.260;4.728;2023-02-22T16:57:49;23.70;;;14.02;;
7487;SDS011;3785;52.260;4.728;2023-02-22T17:01:18;29.27;;;15.82;;
7487;SDS011;3785;52.260;4.728;2023-02-22T17:04:39;24.17;;;14.43;;
7487;SDS011;3785;52.260;4.728;2023-02-22T17:08:00;30.80;;;16.08;;
7487;SDS011;3785;52.260;4.728;2023-02-22T17:11:21;28.83;;;15.68;;
7487;SDS011;3785;52.260;4.728;2023-02-22T17:14:43;30.23;;;15.40;;
7487;SDS011;3785;52.260;4.728;2023-02-22T17:18:15;26.40;;;15.38;;
7487;SDS011;3785;52.260;4.728;2023-02-22T17:21:38;30.38;;;15.77;;
7487;SDS011;3785;52.260;4.728;2023-02-22T17:24:59;31.45;;;16.75;;
7487;SDS011;3785;52.260;4.728;2023-02-22T17:28:20;26.48;;;15.65;;
7487;SDS011;3785;52.260;4.728;2023-02-22T17:31:45;32.20;;;16.77;;
7487;SDS011;3785;52.260;4.728;2023-02-22T17:35:07;27.10;;;16.05;;
7487;SDS011;3785;52.260;4.728;2023-02-22T17:38:28;31.27;;;15.13;;
7487;SDS011;3785;52.260;4.728;2023-02-22T17:41:49;30.90;;;16.13;;
7487;SDS011;3785;52.260;4.728;2023-02-22T17:45:16;29.63;;;16.63;;
7487;SDS011;3785;52.260;4.728;2023-02-22T17:48:37;28.58;;;16.75;;
7487;SDS011;3785;52.260;4.728;2023-02-22T17:51:58;30.80;;;17.15;;
7487;SDS011;3785;52.260;4.728;2023-02-22T17:55:19;32.88;;;17.20;;
7487;SDS011;3785;52.260;4.728;2023-02-22T17:58:41;28.10;;;15.95;;
7487;SDS011;3785;52.260;4.728;2023-02-22T18:02:01;28.17;;;16.10;;
7487;SDS011;3785;52.260;4.728;2023-02-22T18:05:22;28.20;;;14.63;;
7487;SDS011;3785;52.260;4.728;2023-02-22T18:08:43;28.52;;;15.35;;
7487;SDS011;3785;52.260;4.728;2023-02-22T18:12:03;30.42;;;15.40;;
7487;SDS011;3785;52.260;4.728;2023-02-22T18:15:24;28.17;;;16.17;;
7487;SDS011;3785;52.260;4.728;2023-02-22T18:18:47;27.92;;;15.73;;
7487;SDS011;3785;52.260;4.728;2023-02-22T18:22:08;24.40;;;14.85;;
7487;SDS011;3785;52.260;4.728;2023-02-22T18:25:29;28.48;;;15.00;;
7487;SDS011;3785;52.260;4.728;2023-02-22T18:28:51;28.70;;;15.27;;
7487;SDS011;3785;52.260;4.728;2023-02-22T18:32:12;25.63;;;15.13;;
7487;SDS011;3785;52.260;4.728;2023-02-22T18:35:33;31.08;;;16.77;;
7487;SDS011;3785;52.260;4.728;2023-02-22T18:38:54;25.08;;;14.82;;
7487;SDS011;3785;52.260;4.728;2023-02-22T18:42:14;28.73;;;15.57;;
7487;SDS011;3785;52.260;4.728;2023-02-22T18:45:36;30.83;;;15.65;;
7487;SDS011;3785;52.260;4.728;2023-02-22T18:48:58;25.15;;;14.32;;
7487;SDS011;3785;52.260;4.728;2023-02-22T18:52:18;28.67;;;15.00;;
7487;SDS011;3785;52.260;4.728;2023-02-22T18:55:39;30.40;;;15.13;;
7487;SDS011;3785;52.260;4.728;2023-02-22T18:59:00;29.00;;;15.85;;
7487;SDS011;3785;52.260;4.728;2023-02-22T19:02:22;27.40;;;14.43;;
7487;SDS011;3785;52.260;4.728;2023-02-22T19:05:44;30.13;;;15.20;;
7487;SDS011;3785;52.260;4.728;2023-02-22T19:09:08;27.08;;;15.05;;
7487;SDS011;3785;52.260;4.728;2023-02-22T19:12:29;24.30;;;13.63;;
7487;SDS011;3785;52.260;4.728;2023-02-22T19:15:50;28.40;;;15.10;;
7487;SDS011;3785;52.260;4.728;2023-02-22T19:19:11;24.05;;;14.00;;
7487;SDS011;3785;52.260;4.728;2023-02-22T19:22:33;24.88;;;14.18;;
7487;SDS011;3785;52.260;4.728;2023-02-22T19:25:54;29.83;;;14.40;;
7487;SDS011;3785;52.260;4.728;2023-02-22T19:29:15;28.73;;;14.80;;
7487;SDS011;3785;52.260;4.728;2023-02-22T19:32:36;29.85;;;15.20;;
7487;SDS011;3785;52.260;4.728;2023-02-22T19:35:59;30.20;;;14.70;;
7487;SDS011;3785;52.260;4.728;2023-02-22T19:39:20;30.23;;;15.07;;
7487;SDS011;3785;52.260;4.728;2023-02-22T19:42:40;28.58;;;13.60;;
7487;SDS011;3785;52.260;4.728;2023-02-22T19:46:02;26.95;;;13.65;;
7487;SDS011;3785;52.260;4.728;2023-02-22T19:49:23;32.53;;;15.00;;
7487;SDS011;3785;52.260;4.728;2023-02-22T19:52:46;28.00;;;14.20;;
7487;SDS011;3785;52.260;4.728;2023-02-22T19:56:08;31.02;;;15.77;;
7487;SDS011;3785;52.260;4.728;2023-02-22T19:59:39;25.60;;;15.05;;
7487;SDS011;3785;52.260;4.728;2023-02-22T20:03:00;29.30;;;15.32;;
7487;SDS011;3785;52.260;4.728;2023-02-22T20:06:27;29.65;;;14.85;;
7487;SDS011;3785;52.260;4.728;2023-02-22T20:09:49;29.20;;;14.27;;
7487;SDS011;3785;52.260;4.728;2023-02-22T20:13:09;30.38;;;14.55;;
7487;SDS011;3785;52.260;4.728;2023-02-22T20:16:31;28.35;;;14.60;;
7487;SDS011;3785;52.260;4.728;2023-02-22T20:19:52;28.38;;;14.07;;
7487;SDS011;3785;52.260;4.728;2023-02-22T20:23:13;35.03;;;16.10;;
7487;SDS011;3785;52.260;4.728;2023-02-22T20:26:36;28.42;;;14.00;;
7487;SDS011;3785;52.260;4.728;2023-02-22T20:29:57;31.20;;;14.55;;
7487;SDS011;3785;52.260;4.728;2023-02-22T20:33:18;28.02;;;13.60;;
7487;SDS011;3785;52.260;4.728;2023-02-22T20:36:40;28.95;;;14.05;;
7487;SDS011;3785;52.260;4.728;2023-02-22T20:40:01;27.70;;;14.15;;
7487;SDS011;3785;52.260;4.728;2023-02-22T20:43:21;29.90;;;15.25;;
7487;SDS011;3785;52.260;4.728;2023-02-22T20:46:42;28.70;;;13.75;;
7487;SDS011;3785;52.260;4.728;2023-02-22T20:50:04;27.58;;;14.48;;
7487;SDS011;3785;52.260;4.728;2023-02-22T20:53:26;29.23;;;13.60;;
7487;SDS011;3785;52.260;4.728;2023-02-22T20:56:47;30.83;;;14.60;;
7487;SDS011;3785;52.260;4.728;2023-02-22T21:00:08;26.92;;;13.45;;
7487;SDS011;3785;52.260;4.728;2023-02-22T21:03:31;28.80;;;13.82;;
7487;SDS011;3785;52.260;4.728;2023-02-22T21:06:55;33.13;;;14.80;;
7487;SDS011;3785;52.260;4.728;2023-02-22T21:10:17;31.67;;;15.02;;
7487;SDS011;3785;52.260;4.728;2023-02-22T21:13:40;29.48;;;14.30;;
7487;SDS011;3785;52.260;4.728;2023-02-22T21:17:01;29.95;;;14.57;;
7487;SDS011;3785;52.260;4.728;2023-02-22T21:20:23;33.83;;;15.13;;
7487;SDS011;3785;52.260;4.728;2023-02-22T21:23:46;31.40;;;14.88;;
7487;SDS011;3785;52.260;4.728;2023-02-22T21:27:09;30.60;;;15.50;;
7487;SDS011;3785;52.260;4.728;2023-02-22T21:30:31;30.08;;;15.57;;
7487;SDS011;3785;52.260;4.728;2023-02-22T21:33:52;31.70;;;16.13;;
7487;SDS011;3785;52.260;4.728;2023-02-22T21:37:14;32.50;;;16.45;;
7487;SDS011;3785;52.260;4.728;2023-02-22T21:40:37;33.58;;;16.08;;
7487;SDS011;3785;52.260;4.728;2023-02-22T21:43:57;31.05;;;15.88;;
7487;SDS011;3785;52.260;4.728;2023-02-22T21:47:18;33.50;;;15.55;;
7487;SDS011;3785;52.260;4.728;2023-02-22T21:50:39;29.98;;;15.13;;
7487;SDS011;3785;52.260;4.728;2023-02-22T21:54:01;34.58;;;15.00;;
7487;SDS011;3785;52.260;4.728;2023-02-22T21:57:26;31.27;;;15.35;;
7487;SDS011;3785;52.260;4.728;2023-02-22T22:00:46;32.00;;;14.65;;
7487;SDS011;3785;52.260;4.728;2023-02-22T22:04:07;32.47;;;15.63;;
7487;SDS011;3785;52.260;4.728;2023-02-22T22:07:28;29.05;;;15.00;;
7487;SDS011;3785;52.260;4.728;2023-02-22T22:10:52;33.30;;;15.95;;
7487;SDS011;3785;52.260;4.728;2023-02-22T22:14:17;33.55;;;15.38;;
7487;SDS011;3785;52.260;4.728;2023-02-22T22:17:38;33.70;;;15.88;;
7487;SDS011;3785;52.260;4.728;2023-02-22T22:21:05;35.58;;;15.80;;
7487;SDS011;3785;52.260;4.728;2023-02-22T22:24:29;34.28;;;16.17;;
7487;SDS011;3785;52.260;4.728;2023-02-22T22:27:50;33.33;;;15.32;;
7487;SDS011;3785;52.260;4.728;2023-02-22T22:31:12;33.40;;;16.63;;
7487;SDS011;3785;52.260;4.728;2023-02-22T22:34:33;32.83;;;16.10;;
7487;SDS011;3785;52.260;4.728;2023-02-22T22:37:56;31.10;;;16.33;;
7487;SDS011;3785;52.260;4.728;2023-02-22T22:41:19;33.03;;;16.70;;
7487;SDS011;3785;52.260;4.728;2023-02-22T22:44:40;32.17;;;16.40;;
7487;SDS011;3785;52.260;4.728;2023-02-22T22:48:01;34.08;;;15.60;;